Last 30 Days

Middletown-South

Daily Data | America/Los_Angeles
as of 6/30/22 3:22 AM PDT
Date Daily Max Temp (°F) Time of Max Temp Daily Min Temp (°F) Time of Min Temp Daily Rain (In) Monthly Rain (In) Seasonal Rainfall (In) Wind Spd (mph) Daily Max Wind (mph) Time of Max Wind Max Wind Dir (°) Dew Pt (°F) Max RH (%) Min RH (%) Hrs <= 32F (hrs) Hrs <= 28F (hrs) Daily Leaf Wet Hrs (hrs) Degree Hrs (hrs) Hrs 70-85F (hrs) Hrs > 95F (hrs) Powdery Mildew Stress (pts) Storm Total (In) Daily Max Rain Intensity (In/Hr) Time of Max Rain Intensity Max 1 Min Rain (In) Max 1 Min Rain Time Max 15 Min Rain (In) Max 15 Min Precip Time Max 60 Min Rain (In) GDDs (DL) MinBV Day (V)
6/29/22 91.9 1327 47.5 0558 0.00 0.38 42.71 2.6 21.8 1700 SW | 230 43.8 76 12 0.0 0.0 0.0 242.0 5.99 0.00 0 - - - - - - - - 21.0 12.5
6/28/22 92.7 1024 54.2 0059 0.00 0.38 42.71 2.8 17.8 1541 SW | 236 39.6 58 6 0.0 0.0 0.0 295.5 2.88 0.00 10 - - - - - - - - 24.6 12.5
6/27/22 96.0 1136 48.3 0559 0.00 0.38 42.71 3.2 20.5 1236 SSW | 205 41.9 71 12 0.0 0.0 0.0 329.2 2.70 0.11 20 - - - - - - - - 25.5 12.6
6/26/22 94.7 1209 50.1 0537 0.00 0.38 42.71 2.5 17.6 1333 SW | 220 39.4 64 10 0.0 0.0 0.0 305.6 2.08 0.00 30 - - - - - - - - 24.2 12.6
6/25/22 97.4 1349 52.6 0538 0.00 0.38 42.71 2.5 20.6 1723 W | 272 43.2 75 12 0.0 0.0 0.0 303.9 2.09 0.99 40 - - - - - - - - 24.7 12.6
6/24/22 95.0 1213 51.7 0541 0.00 0.38 42.71 2.6 16.4 1927 SW | 226 46.8 76 16 0.0 0.0 0.0 320.5 2.40 0.00 50 - - - - - - - - 25.4 12.6
6/23/22 91.8 1256 55.0 0615 0.00 0.38 42.71 2.5 21.7 1457 SSW | 200 44.0 69 15 0.0 0.0 0.0 295.8 5.77 0.00 60 - - - - - - - - 25.8 12.6
6/22/22 100.6 1255 56.9 0518 0.00 0.38 42.71 3.1 19.6 1704 WNW | 288 42.2 58 8 0.0 0.0 0.0 398.9 4.97 3.72 70 - - - - - - - - 30.1 12.6
6/21/22 98.1 1622 52.8 0528 0.00 0.38 42.71 2.7 23.4 1620 ESE | 113 38.4 65 7 0.0 0.0 0.0 340.5 1.50 5.08 80 - - - - - - - - 26.5 12.6
6/20/22 89.3 1500 48.8 0605 0.00 0.38 42.71 2.4 18.3 1707 SSW | 196 42.4 84 13 0.0 0.0 0.0 229.4 4.89 0.00 90 - - - - - - - - 19.9 12.6
6/19/22 81.8 1543 43.4 0556 0.00 0.38 42.71 2.3 19.7 1826 SSW | 196 42.7 92 21 0.0 0.0 0.0 142.4 11.65 0.00 100 - - - - - - - - 15.6 12.6
6/18/22 74.6 1535 40.6 0554 0.00 0.38 42.71 2.0 13.9 1059 SW | 236 40.5 93 24 0.0 0.0 1.9 47.7 5.21 0.00 80 - - - - - - - - 10.4 12.6
6/17/22 67.7 1413 46.9 0058 0.00 0.38 42.71 4.4 20.9 1744 WNW | 298 40.5 83 31 0.0 0.0 0.0 1.2 0.00 0.00 90 - - - - - - - - 7.5 12.6
6/16/22 79.8 1501 46.5 0606 0.00 0.38 42.71 3.5 22.0 2325 WSW | 256 40.3 77 13 0.0 0.0 0.0 104.5 9.97 0.00 100 - - - - - - - - 14.1 12.6
6/15/22 87.9 1448 49.1 0549 0.00 0.38 42.71 2.9 17.6 1245 SW | 219 40.6 82 11 0.0 0.0 0.0 230.4 5.32 0.00 80 - - - - - - - - 20.3 12.6
6/14/22 86.7 1608 45.5 0518 0.00 0.38 42.71 2.3 13.8 1747 SW | 217 41.2 85 11 0.0 0.0 0.0 191.2 5.71 0.00 90 - - - - - - - - 18.3 12.6
6/13/22 79.8 1545 41.7 0607 0.00 0.38 42.71 2.4 15.1 1301 N | 0 39.2 91 14 0.0 0.0 0.6 104.9 9.32 0.00 100 - - - - - - - - 13.5 12.6
6/12/22 74.0 1552 49.0 0059 0.00 0.38 42.71 3.1 18.2 1711 WNW | 287 51.6 79 39 0.0 0.0 0.0 69.4 7.05 0.00 100 - - - - - - - - 16.2 12.6
6/11/22 89.0 1557 53.3 0429 0.00 0.38 42.71 3.7 19.2 1304 W | 267 52.1 81 20 0.0 0.0 0.0 299.6 6.48 0.00 100 - - - - - - - - 25.0 12.6
6/10/22 96.5 1501 57.1 0434 0.00 0.38 42.71 2.7 17.1 1054 WNW | 283 51.0 83 17 0.0 0.0 0.0 344.6 1.82 1.84 80 - - - - - - - - 27.8 12.6
6/9/22 93.8 1548 54.5 0559 0.00 0.38 42.71 2.3 17.6 1329 SSW | 193 49.0 86 17 0.0 0.0 0.0 280.3 3.27 0.00 90 - - - - - - - - 24.7 12.6
6/8/22 85.8 1514 56.9 0411 0.00 0.38 42.71 3.1 18.5 1213 SW | 235 51.4 81 27 0.0 0.0 0.0 207.5 12.81 0.00 100 - - - - - - - - 21.8 12.6
6/7/22 84.3 1324 49.4 0514 0.00 0.38 42.71 2.9 18.6 1521 WSW | 249 47.7 96 20 0.0 0.0 4.2 192.7 12.45 0.00 100 - - - - - - - - 18.8 12.6
6/6/22 82.3 1641 47.2 0557 0.00 0.38 42.71 2.7 15.6 1642 NW | 306 49.8 98 25 0.0 0.0 5.2 137.9 10.97 0.00 100 - - - - - - - - 16.3 12.6
6/5/22 72.1 1509 56.3 0101 0.30 0.38 42.71 3.0 15.7 1544 S | 191 58.3 100 60 0.0 0.0 10.7 25.2 2.09 0.00 80 0.38 0.29 0552 0.01 0107 0.05 0556 0.09 12.7 12.6
6/4/22 69.1 1345 53.4 0509 0.08 0.08 42.41 2.4 17.2 1603 W | 275 46.0 98 32 0.0 0.0 7.0 12.3 0.00 0.00 90 - 0.09 0020 0.01 1941 0.02 0014 0.05 9.7 12.6
6/3/22 75.9 0904 52.8 0603 0.00 0.00 42.33 3.1 18.3 1413 S | 189 49.5 77 39 0.0 0.0 0.0 80.3 9.34 0.00 100 - - - - - - - - 15.3 12.6
6/2/22 85.9 1121 55.6 0559 0.00 0.00 42.33 3.0 18.1 1350 SSW | 203 42.6 68 19 0.0 0.0 0.0 210.7 13.14 0.00 80 - - - - - - - - 22.0 12.6
6/1/22 87.6 1523 46.7 0550 0.00 0.00 42.33 2.8 17.5 1559 SW | 223 40.5 82 13 0.0 0.0 0.0 227.3 4.62 0.00 60 - - - - - - - - 20.5 12.6
5/31/22 84.0 1623 42.9 0554 0.00 0.40 42.33 2.7 15.4 1903 SSW | 198 33.5 81 8 0.0 0.0 0.0 158.2 10.90 0.00 70 - - - - - - - - 16.2 12.6
Max 100.6 - 57.1 - 0.30 0.40 42.71 4.4 23.4 - - 58.3 100 60 0.0 0.0 10.7 398.9 13.14 5.08 - - 0.29 - 0.01 - 0.05 - 0.09 30.1 12.6
Avg - - - - - 0.33 - 2.8 - - - 44.3 - - 0.0 0.0 - - 5.91 0.39 - - - - - - - - - 19.8 -
Min 67.7 - 40.6 - 0.00 0.00 42.33 2.0 13.8 - - 33.5 58 6 0.0 0.0 0.0 1.2 0.00 0.00 - - 0.09 - 0.01 - 0.02 - 0.05 7.5 12.5
Total - - - - - - - - - - - - - - 0.0 0.0 - - 177.40 11.75 - - - - - - - - - 594.6 -